This is the latest recevied weather packets stored in our database for station/object K6MBY. If no packets are shown the sender has not sent any weather packets the latest 10 day(s).
| Time | Temp. | Humidity | Pressure | Rain* | Wind** | Luminosity | Snow |
|---|---|---|---|---|---|---|---|
| 1777176077 | 13.33° C | 38% | 1012.6 hPa | 0 mm | - | 0 W/m² | - |
| 1777175776 | 14.44° C | 35% | 1012.5 hPa | 0 mm | - | 0 W/m² | - |
| 1777175469 | 15° C | 33% | 1012.6 hPa | 0 mm | - | 0 W/m² | - |
| 1777175169 | 15° C | 32% | 1012.6 hPa | 0 mm | - | 0 W/m² | - |
| 1777174867 | 15° C | 31% | 1012.5 hPa | 0 mm | - | 0 W/m² | - |
| 1777174564 | 15° C | 32% | 1012.5 hPa | 0 mm | - | 0 W/m² | - |
| 1777174262 | 15.56° C | 32% | 1012.8 hPa | 0 mm | - | 1 W/m² | - |
| 1777173957 | 15.56° C | 31% | 1012.6 hPa | 0 mm | - | 1 W/m² | - |
| 1777173655 | 15.56° C | 30% | 1012.3 hPa | 0 mm | - | 3 W/m² | - |
| 1777173354 | 15.56° C | 30% | 1012.6 hPa | 0 mm | - | 5 W/m² | - |
| 1777173050 | 15.56° C | 31% | 1012.7 hPa | 0 mm | - | 7 W/m² | - |
| 1777172748 | 15.56° C | 33% | 1012.8 hPa | 0 mm | - | 10 W/m² | - |
| 1777172444 | 16.11° C | 31% | 1012.6 hPa | 0 mm | - | 13 W/m² | - |
| 1777172139 | 16.11° C | 31% | 1012.7 hPa | 0 mm | - | 17 W/m² | - |
| 1777171837 | 16.11° C | 31% | 1012.7 hPa | 0 mm | - | 21 W/m² | - |
| 1777171532 | 16.11° C | 31% | 1012.7 hPa | 0 mm | - | 24 W/m² | - |
| 1777171227 | 16.11° C | 30% | 1012.7 hPa | 0 mm | - | 28 W/m² | - |
| 1777170926 | 16.67° C | 30% | 1012.8 hPa | 0 mm | - | 32 W/m² | - |
| 1777170623 | 16.67° C | 30% | 1012.9 hPa | 0 mm | - | 34 W/m² | - |
| 1777170319 | 16.67° C | 30% | 1012.9 hPa | 0 mm | - | 36 W/m² | - |
| 1777170016 | 17.22° C | 29% | 1012.9 hPa | 0 mm | - | 40 W/m² | - |
| 1777169714 | 17.22° C | 28% | 1012.9 hPa | 0 mm | - | 50 W/m² | - |
| 1777169404 | 17.22° C | 27% | 1013 hPa | 0 mm | - | 59 W/m² | - |
| 1777169103 | 17.22° C | 27% | 1013.1 hPa | 0 mm | - | 67 W/m² | - |
| 1777168799 | 17.22° C | 27% | 1013 hPa | 0 mm | - | 77 W/m² | - |
* Rain latest hour (hover to see other rain measurements)
** Current wind speed in m/s (hover to see current wind gust speed)